createdAt,value
2022-08-28T00:02:35.321Z,20.09
2022-08-28T00:05:32.724Z,20.08
2022-08-28T00:08:30.742Z,20.11
2022-08-28T00:11:27.941Z,19.99
2022-08-28T00:14:25.256Z,19.96
2022-08-28T00:17:21.825Z,19.87
2022-08-28T00:20:19.969Z,19.72
2022-08-28T00:23:17.143Z,19.56
2022-08-28T00:26:33.955Z,19.52
2022-08-28T00:29:32.194Z,19.52
2022-08-28T00:32:28.995Z,19.62
2022-08-28T00:35:26.740Z,19.51
2022-08-28T00:38:24.725Z,19.36
2022-08-28T00:41:25.013Z,19.26
2022-08-28T00:44:25.748Z,19.03
2022-08-28T00:47:25.232Z,19.04
2022-08-28T00:50:24.716Z,19.30
2022-08-28T00:53:25.333Z,19.28
2022-08-28T00:56:27.872Z,19.34
2022-08-28T00:59:25.764Z,19.38
2022-08-28T01:02:23.472Z,19.46
2022-08-28T01:05:20.401Z,19.43
2022-08-28T01:08:17.118Z,19.40
2022-08-28T01:11:17.464Z,19.48
2022-08-28T01:14:15.040Z,19.40
2022-08-28T01:17:12.002Z,19.28
2022-08-28T01:20:12.569Z,19.06
2022-08-28T01:23:15.547Z,18.94
2022-08-28T01:26:13.299Z,18.74
2022-08-28T01:29:11.577Z,18.71
2022-08-28T01:32:08.934Z,18.70
2022-08-28T01:35:09.607Z,18.86
2022-08-28T01:38:07.440Z,19.11
2022-08-28T01:41:04.933Z,19.17
2022-08-28T01:44:02.243Z,19.25
2022-08-28T01:46:59.514Z,19.28
2022-08-28T01:49:56.783Z,19.33
2022-08-28T01:52:54.309Z,19.16
2022-08-28T01:55:51.365Z,18.93
2022-08-28T01:58:49.228Z,18.77
2022-08-28T02:01:46.640Z,18.36
2022-08-28T02:04:47.568Z,18.36
2022-08-28T02:07:45.745Z,18.75
2022-08-28T02:10:43.849Z,19.09
2022-08-28T02:13:41.323Z,19.07
2022-08-28T02:16:38.127Z,19.06
2022-08-28T02:19:35.516Z,18.69
2022-08-28T02:22:32.688Z,18.06
2022-08-28T02:25:30.158Z,18.09
2022-08-28T02:28:27.302Z,18.58
2022-08-28T02:31:24.609Z,18.93
2022-08-28T02:34:22.078Z,18.76
2022-08-28T02:37:20.736Z,18.71
2022-08-28T02:40:20.491Z,18.25
2022-08-28T02:43:18.618Z,17.50
2022-08-28T02:46:16.537Z,17.02
2022-08-28T02:49:13.445Z,16.66
2022-08-28T02:52:10.719Z,16.38
2022-08-28T02:55:09.120Z,16.31
2022-08-28T02:58:06.942Z,16.43
2022-08-28T03:01:06.950Z,16.77
2022-08-28T03:04:05.466Z,16.73
2022-08-28T03:07:04.347Z,16.31
2022-08-28T03:10:01.324Z,16.07
2022-08-28T03:12:58.504Z,16.05
2022-08-28T03:15:55.998Z,15.77
2022-08-28T03:18:53.400Z,15.71
2022-08-28T03:21:50.497Z,15.59
2022-08-28T03:24:50.501Z,15.55
2022-08-28T03:27:47.360Z,15.79
2022-08-28T03:30:44.414Z,16.28
2022-08-28T03:33:41.976Z,17.14
2022-08-28T03:36:40.133Z,17.74
2022-08-28T03:39:37.067Z,17.91
2022-08-28T03:42:35.157Z,17.91
2022-08-28T03:45:32.912Z,17.76
2022-08-28T03:48:32.140Z,17.60
2022-08-28T03:51:31.906Z,17.55
2022-08-28T03:54:31.790Z,17.68
2022-08-28T03:57:30.226Z,17.71
2022-08-28T04:00:27.286Z,17.73
2022-08-28T04:03:24.222Z,17.77
2022-08-28T04:06:21.251Z,17.82
2022-08-28T04:09:18.359Z,17.78
2022-08-28T04:12:15.206Z,17.76
2022-08-28T04:15:12.912Z,17.85
2022-08-28T04:18:10.464Z,17.76
2022-08-28T04:21:12.154Z,17.79
2022-08-28T04:24:09.819Z,17.75
2022-08-28T04:27:07.489Z,17.69
2022-08-28T04:30:05.453Z,17.77
2022-08-28T04:33:03.394Z,17.84
2022-08-28T04:36:04.925Z,17.96
2022-08-28T04:39:03.090Z,17.95
2022-08-28T04:42:00.625Z,17.90
2022-08-28T04:44:59.711Z,17.96
2022-08-28T04:47:58.137Z,18.03
2022-08-28T04:50:58.168Z,18.08
2022-08-28T04:53:55.750Z,18.10
2022-08-28T04:56:53.703Z,18.13
2022-08-28T04:59:51.356Z,18.18
2022-08-28T05:02:48.606Z,18.16
2022-08-28T05:05:47.318Z,18.21
2022-08-28T05:08:44.334Z,18.17
2022-08-28T05:11:41.421Z,18.13
2022-08-28T05:14:38.374Z,18.05
2022-08-28T05:17:35.423Z,17.94
2022-08-28T05:20:37.136Z,17.90
2022-08-28T05:23:34.439Z,17.89
2022-08-28T05:26:31.548Z,17.86
2022-08-28T05:29:29.810Z,17.72
2022-08-28T05:32:27.147Z,17.78
2022-08-28T05:35:24.934Z,17.83
2022-08-28T05:38:23.161Z,17.62
2022-08-28T05:41:25.097Z,17.47
2022-08-28T05:44:22.466Z,17.25
2022-08-28T05:47:21.603Z,17.30
2022-08-28T05:50:18.588Z,17.30
2022-08-28T05:53:17.041Z,17.36
2022-08-28T05:56:16.583Z,17.29
2022-08-28T05:59:13.217Z,17.13
2022-08-28T06:02:10.827Z,17.19
2022-08-28T06:05:09.415Z,17.08
2022-08-28T06:08:10.405Z,17.08
2022-08-28T06:11:07.746Z,17.07
2022-08-28T06:14:09.778Z,17.20
2022-08-28T06:17:07.699Z,17.17
2022-08-28T06:20:04.937Z,17.14
2022-08-28T06:23:02.727Z,17.25
2022-08-28T06:25:59.215Z,17.31
2022-08-28T06:29:05.611Z,17.14
2022-08-28T06:32:04.494Z,17.21
2022-08-28T06:35:01.401Z,17.37
2022-08-28T06:37:59.047Z,17.39
2022-08-28T06:40:57.342Z,17.42
2022-08-28T06:43:55.038Z,17.11
2022-08-28T06:46:53.301Z,17.05
2022-08-28T06:49:50.643Z,17.26
2022-08-28T06:52:47.844Z,17.35
2022-08-28T06:55:45.470Z,17.37
2022-08-28T06:58:43.485Z,17.30
2022-08-28T07:01:47.611Z,17.37
2022-08-28T07:04:44.469Z,17.55
2022-08-28T07:07:41.281Z,17.61
2022-08-28T07:10:38.718Z,17.74
2022-08-28T07:13:36.569Z,17.92
2022-08-28T07:16:38.331Z,17.93
2022-08-28T07:19:35.810Z,18.05
2022-08-28T07:22:32.514Z,18.18
2022-08-28T07:25:29.831Z,18.34
2022-08-28T07:28:27.380Z,18.29
2022-08-28T07:31:28.542Z,18.10
2022-08-28T07:34:27.121Z,18.25
2022-08-28T07:37:24.393Z,18.39
2022-08-28T07:40:22.396Z,18.63
2022-08-28T07:43:41.201Z,18.87
2022-08-28T07:46:38.985Z,19.02
2022-08-28T07:49:36.745Z,18.95
2022-08-28T07:52:33.575Z,19.11
2022-08-28T07:55:31.779Z,19.21
2022-08-28T07:58:28.526Z,19.22
2022-08-28T08:01:27.015Z,19.16
2022-08-28T08:04:26.620Z,19.13
2022-08-28T08:07:23.450Z,19.33
2022-08-28T08:10:20.827Z,19.38
2022-08-28T08:13:17.821Z,19.36
2022-08-28T08:16:19.445Z,19.42
2022-08-28T08:19:17.658Z,19.39
2022-08-28T08:22:14.800Z,19.52
2022-08-28T08:25:16.110Z,19.41
2022-08-28T08:28:14.005Z,19.50
2022-08-28T08:31:22.674Z,19.47
2022-08-28T08:34:19.551Z,19.70
2022-08-28T08:37:16.493Z,20.03
2022-08-28T08:40:19.207Z,20.09
2022-08-28T08:43:16.579Z,19.78
2022-08-28T08:46:13.476Z,19.76
2022-08-28T08:49:18.608Z,19.73
2022-08-28T08:52:32.186Z,19.81
2022-08-28T08:55:35.682Z,19.97
2022-08-28T08:58:41.641Z,20.09
2022-08-28T09:01:47.428Z,20.20
2022-08-28T09:04:49.066Z,20.28
2022-08-28T09:07:59.543Z,20.21
2022-08-28T09:11:24.009Z,19.92
2022-08-28T09:14:36.492Z,19.91
2022-08-28T09:18:18.145Z,20.26
2022-08-28T09:21:29.459Z,20.64
2022-08-28T09:24:28.836Z,20.67
2022-08-28T09:27:32.816Z,20.87
2022-08-28T09:30:31.007Z,20.68
2022-08-28T09:33:42.266Z,20.67
2022-08-28T09:36:39.522Z,20.77
2022-08-28T09:39:37.298Z,20.72
2022-08-28T09:42:53.214Z,20.52
2022-08-28T09:45:59.793Z,20.38
2022-08-28T09:49:11.991Z,20.49
2022-08-28T09:52:23.177Z,20.69
2022-08-28T09:55:53.652Z,20.91
2022-08-28T09:59:07.155Z,21.12
2022-08-28T10:02:05.823Z,20.77
2022-08-28T10:05:10.737Z,20.68
2022-08-28T10:08:20.209Z,20.73
2022-08-28T10:11:58.969Z,20.81
2022-08-28T10:14:59.016Z,20.83
2022-08-28T10:18:06.289Z,20.80
2022-08-28T10:21:26.862Z,20.75
2022-08-28T10:24:51.922Z,21.10
2022-08-28T10:28:14.948Z,21.32
2022-08-28T10:31:18.892Z,21.43
2022-08-28T10:34:33.910Z,21.54
2022-08-28T10:37:58.409Z,21.43
2022-08-28T10:40:59.896Z,21.14
2022-08-28T10:43:57.299Z,21.03
2022-08-28T10:46:56.010Z,21.10
2022-08-28T10:49:53.707Z,21.19
2022-08-28T10:52:55.968Z,21.21
2022-08-28T10:55:59.223Z,21.49
2022-08-28T10:58:58.988Z,21.87
2022-08-28T11:01:55.575Z,21.98
2022-08-28T11:04:58.237Z,21.83
2022-08-28T11:07:57.939Z,21.84
2022-08-28T11:10:58.914Z,21.82
2022-08-28T11:13:57.955Z,21.80
2022-08-28T11:16:57.379Z,21.81
2022-08-28T11:20:16.290Z,21.93
2022-08-28T11:23:48.390Z,21.92
2022-08-28T11:26:51.958Z,21.83
2022-08-28T11:29:58.342Z,22.18
2022-08-28T11:32:57.695Z,22.20
2022-08-28T11:35:54.578Z,22.04
2022-08-28T11:38:54.506Z,22.18
2022-08-28T11:42:09.618Z,22.38
2022-08-28T11:45:07.678Z,22.08
2022-08-28T11:48:05.051Z,21.97
2022-08-28T11:51:09.964Z,22.15
2022-08-28T11:54:44.230Z,22.14
2022-08-28T11:57:51.223Z,21.91
2022-08-28T12:00:54.864Z,21.96
2022-08-28T12:03:59.343Z,22.12
2022-08-28T12:07:11.632Z,22.09
2022-08-28T12:10:27.648Z,22.03
2022-08-28T12:13:43.024Z,21.94
2022-08-28T12:17:07.566Z,21.84
2022-08-28T12:20:12.799Z,21.99
2022-08-28T12:23:39.209Z,22.13
2022-08-28T12:26:39.842Z,22.05
2022-08-28T12:29:43.793Z,22.07
2022-08-28T12:32:47.709Z,22.22
2022-08-28T12:35:44.823Z,22.10
2022-08-28T12:38:41.694Z,21.99
2022-08-28T12:41:38.513Z,21.84
2022-08-28T12:44:35.810Z,21.94
2022-08-28T12:47:33.759Z,22.10
2022-08-28T12:50:36.260Z,22.14
2022-08-28T12:53:41.129Z,22.37
2022-08-28T12:56:38.650Z,22.07
2022-08-28T12:59:47.095Z,22.24
2022-08-28T13:02:47.629Z,22.52
2022-08-28T13:05:47.969Z,22.41
2022-08-28T13:08:45.040Z,22.36
2022-08-28T13:11:46.649Z,22.43
2022-08-28T13:14:46.151Z,22.59
2022-08-28T13:17:49.988Z,22.62
2022-08-28T13:20:46.629Z,22.81
2022-08-28T13:23:58.304Z,22.90
2022-08-28T13:27:21.625Z,22.64
2022-08-28T13:30:33.863Z,22.85
2022-08-28T13:33:31.451Z,23.07
2022-08-28T13:36:48.267Z,22.86
2022-08-28T13:39:45.994Z,22.74
2022-08-28T13:42:43.061Z,22.80
2022-08-28T13:45:43.058Z,22.78
2022-08-28T13:48:40.458Z,22.95
2022-08-28T13:51:39.458Z,23.09
2022-08-28T13:54:37.098Z,22.89
2022-08-28T13:57:36.398Z,23.23
2022-08-28T14:00:36.208Z,23.47
2022-08-28T14:03:36.510Z,23.42
2022-08-28T14:06:33.834Z,23.19
2022-08-28T14:09:30.950Z,23.39
2022-08-28T14:12:33.299Z,23.57
2022-08-28T14:15:30.695Z,23.65
2022-08-28T14:18:28.229Z,23.68
2022-08-28T14:21:26.210Z,23.64
2022-08-28T14:24:24.921Z,23.36
2022-08-28T14:27:22.059Z,23.15
2022-08-28T14:30:19.268Z,23.28
2022-08-28T14:33:19.372Z,23.23
2022-08-28T14:36:20.998Z,22.82
2022-08-28T14:39:17.948Z,22.61
2022-08-28T14:42:14.996Z,22.67
2022-08-28T14:45:11.781Z,22.63
2022-08-28T14:48:08.593Z,22.81
2022-08-28T14:51:06.078Z,22.88
2022-08-28T14:54:02.929Z,23.02
2022-08-28T14:56:59.836Z,23.29
2022-08-28T14:59:57.148Z,23.46
2022-08-28T15:02:59.707Z,23.59
2022-08-28T15:06:01.870Z,23.47
2022-08-28T15:08:59.185Z,23.43
2022-08-28T15:11:55.779Z,23.46
2022-08-28T15:14:57.110Z,23.41
2022-08-28T15:17:55.064Z,23.51
2022-08-28T15:20:52.007Z,23.45
2022-08-28T15:23:50.612Z,23.37
2022-08-28T15:26:47.925Z,23.43
2022-08-28T15:29:45.097Z,23.53
2022-08-28T15:32:44.642Z,23.44
2022-08-28T15:35:41.782Z,23.41
2022-08-28T15:38:56.993Z,23.50
2022-08-28T15:41:54.919Z,23.34
2022-08-28T15:44:52.028Z,23.42
2022-08-28T15:47:48.867Z,23.34
2022-08-28T15:50:45.785Z,23.35
2022-08-28T15:53:42.827Z,23.55
2022-08-28T15:56:41.492Z,23.63
2022-08-28T15:59:49.015Z,23.55
2022-08-28T16:02:47.900Z,23.54
2022-08-28T16:05:45.444Z,23.40
2022-08-28T16:08:43.219Z,23.15
2022-08-28T16:11:41.990Z,23.00
2022-08-28T16:14:39.314Z,23.02
2022-08-28T16:17:37.157Z,22.95
2022-08-28T16:20:33.703Z,23.14
2022-08-28T16:23:31.204Z,23.06
2022-08-28T16:26:27.940Z,23.10
2022-08-28T16:29:24.932Z,23.11
2022-08-28T16:32:23.415Z,23.24
2022-08-28T16:35:21.261Z,23.14
2022-08-28T16:38:18.997Z,23.08
2022-08-28T16:41:21.904Z,23.01
2022-08-28T16:44:23.095Z,23.00
2022-08-28T16:47:20.232Z,23.08
2022-08-28T16:50:17.653Z,22.95
2022-08-28T16:53:14.949Z,22.91
2022-08-28T16:56:17.281Z,22.87
2022-08-28T16:59:23.509Z,22.57
2022-08-28T17:02:26.712Z,22.42
2022-08-28T17:05:24.885Z,22.56
2022-08-28T17:08:21.804Z,22.45
2022-08-28T17:11:19.441Z,22.29
2022-08-28T17:14:18.163Z,22.42
2022-08-28T17:17:14.962Z,22.61
2022-08-28T17:20:31.045Z,22.58
2022-08-28T17:23:27.693Z,22.57
2022-08-28T17:26:25.034Z,22.55
2022-08-28T17:29:21.841Z,22.23
2022-08-28T17:32:19.178Z,21.99
2022-08-28T17:35:16.264Z,21.98
2022-08-28T17:38:13.614Z,21.94
2022-08-28T17:41:11.394Z,21.94
2022-08-28T17:44:08.802Z,21.81
2022-08-28T17:47:06.264Z,21.66
2022-08-28T17:50:04.915Z,21.49
2022-08-28T17:53:01.767Z,21.27
2022-08-28T17:55:59.324Z,21.18
2022-08-28T17:58:56.097Z,21.22
2022-08-28T18:01:54.100Z,21.27
2022-08-28T18:04:51.498Z,21.12
2022-08-28T18:07:49.239Z,21.12
2022-08-28T18:10:46.086Z,21.17
2022-08-28T18:13:43.445Z,21.32
2022-08-28T18:16:41.525Z,21.45
2022-08-28T18:19:40.255Z,21.44
2022-08-28T18:22:38.262Z,21.41
2022-08-28T18:25:50.820Z,21.46
2022-08-28T18:28:48.452Z,21.47
2022-08-28T18:31:45.952Z,21.53
2022-08-28T18:34:42.995Z,21.56
2022-08-28T18:37:40.039Z,21.51
2022-08-28T18:40:37.304Z,21.41
2022-08-28T18:43:35.613Z,21.17
2022-08-28T18:46:33.170Z,21.12
2022-08-28T18:49:30.373Z,20.79
2022-08-28T18:52:28.947Z,20.56
2022-08-28T18:55:27.285Z,20.59
2022-08-28T18:58:24.465Z,20.74
2022-08-28T19:01:22.482Z,20.76
2022-08-28T19:04:20.314Z,20.62
2022-08-28T19:07:18.651Z,20.66
2022-08-28T19:10:32.201Z,20.77
2022-08-28T19:13:31.433Z,20.62
2022-08-28T19:16:30.236Z,20.69
2022-08-28T19:19:27.609Z,20.91
2022-08-28T19:22:25.082Z,20.99
2022-08-28T19:25:29.235Z,21.07
2022-08-28T19:28:27.124Z,21.07
2022-08-28T19:31:25.017Z,21.07
2022-08-28T19:34:22.222Z,21.15
2022-08-28T19:37:19.009Z,21.18
2022-08-28T19:40:16.090Z,21.11
2022-08-28T19:43:16.517Z,21.08
2022-08-28T19:46:19.477Z,21.10
2022-08-28T19:49:17.311Z,21.05
2022-08-28T19:52:15.379Z,21.03
2022-08-28T19:55:26.515Z,20.88
2022-08-28T19:58:24.028Z,20.95
2022-08-28T20:01:21.408Z,21.09
2022-08-28T20:04:18.451Z,21.08
2022-08-28T20:07:16.605Z,21.05
2022-08-28T20:10:15.582Z,20.99
2022-08-28T20:13:14.153Z,20.85
2022-08-28T20:16:11.082Z,20.87
2022-08-28T20:19:10.588Z,20.81
2022-08-28T20:22:08.461Z,20.93
2022-08-28T20:25:07.266Z,20.93
2022-08-28T20:28:04.563Z,21.01
2022-08-28T20:31:11.121Z,20.81
2022-08-28T20:34:09.378Z,20.86
2022-08-28T20:37:06.029Z,20.96
2022-08-28T20:40:09.146Z,21.05
2022-08-28T20:43:07.342Z,21.10
2022-08-28T20:46:05.577Z,21.20
2022-08-28T20:49:03.382Z,21.22
2022-08-28T20:52:01.767Z,21.17
2022-08-28T20:54:59.598Z,21.15
2022-08-28T20:57:57.051Z,21.14
2022-08-28T21:00:57.234Z,21.06
2022-08-28T21:03:57.297Z,20.92
2022-08-28T21:06:54.466Z,20.89
2022-08-28T21:10:07.193Z,20.95
2022-08-28T21:13:05.548Z,20.78
2022-08-28T21:16:03.535Z,20.33
2022-08-28T21:19:16.874Z,20.04
2022-08-28T21:22:14.562Z,19.87
2022-08-28T21:25:13.559Z,20.07
2022-08-28T21:28:10.056Z,19.96
2022-08-28T21:31:11.495Z,20.29
2022-08-28T21:34:09.681Z,20.54
2022-08-28T21:37:07.311Z,20.58
2022-08-28T21:40:05.266Z,20.56
2022-08-28T21:43:02.181Z,20.71
2022-08-28T21:46:00.569Z,20.70
2022-08-28T21:48:58.091Z,20.66
2022-08-28T21:51:55.194Z,20.63
2022-08-28T21:55:17.419Z,20.60
2022-08-28T21:58:14.547Z,20.59
2022-08-28T22:01:14.334Z,20.51
2022-08-28T22:04:11.597Z,20.40
2022-08-28T22:07:12.130Z,20.48
2022-08-28T22:10:09.666Z,20.36
2022-08-28T22:13:08.078Z,20.49
2022-08-28T22:16:06.105Z,20.52
2022-08-28T22:19:04.393Z,19.87
2022-08-28T22:22:20.125Z,19.48
2022-08-28T22:25:17.317Z,18.90
2022-08-28T22:28:14.385Z,18.85
2022-08-28T22:31:11.388Z,19.41
2022-08-28T22:34:10.310Z,19.88
2022-08-28T22:37:07.876Z,19.85
2022-08-28T22:40:09.510Z,19.87
2022-08-28T22:43:10.532Z,19.84
2022-08-28T22:46:07.836Z,19.75
2022-08-28T22:49:05.491Z,19.65
2022-08-28T22:52:02.883Z,19.52
2022-08-28T22:55:00.418Z,19.28
2022-08-28T22:57:57.457Z,19.11
2022-08-28T23:00:54.174Z,18.65
2022-08-28T23:03:51.156Z,18.56
2022-08-28T23:06:48.341Z,18.73
2022-08-28T23:09:45.322Z,18.54
2022-08-28T23:12:43.371Z,18.14
2022-08-28T23:15:40.294Z,17.73
2022-08-28T23:19:03.924Z,17.40
2022-08-28T23:21:55.532Z,17.28
2022-08-28T23:24:52.544Z,17.32
2022-08-28T23:27:49.822Z,17.99
2022-08-28T23:30:49.547Z,18.66
2022-08-28T23:33:47.214Z,19.20
2022-08-28T23:36:45.261Z,19.39
2022-08-28T23:39:42.657Z,19.13
2022-08-28T23:42:40.249Z,19.06
2022-08-28T23:45:39.567Z,18.94
2022-08-28T23:48:36.197Z,18.84
2022-08-28T23:51:35.616Z,18.78
2022-08-28T23:54:32.345Z,18.72
2022-08-28T23:57:29.243Z,18.34
